Salt Lake City, Utah
Traffic Map
Current Weather Conditions
Salt Lake City, Utah
Overcast Light Snow
Overcast
33°
Feels Like: 27°
Wind Chill: 27° Ceiling: 600
Heat Index: 33° Visibility: 1mi
Dew Point: 31° Wind: 7mph
Humidity: 92% Direction: 300° (WNW)
Pressure: 29.73in Gusts: 0mph
Raw Report DataKSLC 192218Z 30006KT 1SM R16L/P6000FT -SN BR BKN006 OVC032 01/M01 A2973 RMK AO2 SFC VIS 1 1/4 P0001 T00061006
Traffic Incident Summary
Active as of:
Severity:
Category:
InformationThere was an issue retrieving the traffic information for this location. Please try a different location or try again shortly.
Advertisements
Track Severe Weather on mobile